sensor_id;sensor_type;location;lat;lon;timestamp;P1;durP1;ratioP1;P2;durP2;ratioP2
63664;SDS011;49820;33.966;73.390;2022-12-07T00:02:04;4.93;;;2.95;;
63664;SDS011;49820;33.966;73.390;2022-12-07T00:04:33;6.70;;;3.50;;
63664;SDS011;49820;33.966;73.390;2022-12-07T00:07:02;6.50;;;3.60;;
63664;SDS011;49820;33.966;73.390;2022-12-07T00:09:32;5.65;;;3.50;;
63664;SDS011;49820;33.966;73.390;2022-12-07T00:12:01;5.80;;;3.63;;
63664;SDS011;49820;33.966;73.390;2022-12-07T00:14:30;6.57;;;3.80;;
63664;SDS011;49820;33.966;73.390;2022-12-07T00:16:58;8.25;;;5.00;;
63664;SDS011;49820;33.966;73.390;2022-12-07T00:19:28;9.48;;;4.55;;
63664;SDS011;49820;33.966;73.390;2022-12-07T00:21:56;10.93;;;5.63;;
63664;SDS011;49820;33.966;73.390;2022-12-07T00:24:25;9.63;;;5.47;;
63664;SDS011;49820;33.966;73.390;2022-12-07T00:26:54;7.00;;;4.70;;
63664;SDS011;49820;33.966;73.390;2022-12-07T00:29:23;8.27;;;4.20;;
63664;SDS011;49820;33.966;73.390;2022-12-07T00:31:52;8.30;;;3.92;;
63664;SDS011;49820;33.966;73.390;2022-12-07T00:34:21;5.45;;;3.67;;
63664;SDS011;49820;33.966;73.390;2022-12-07T00:36:50;5.32;;;3.47;;
63664;SDS011;49820;33.966;73.390;2022-12-07T00:39:22;7.15;;;3.28;;
63664;SDS011;49820;33.966;73.390;2022-12-07T00:41:51;5.28;;;3.20;;
63664;SDS011;49820;33.966;73.390;2022-12-07T00:44:20;4.03;;;2.63;;
63664;SDS011;49820;33.966;73.390;2022-12-07T00:46:49;5.18;;;2.90;;
63664;SDS011;49820;33.966;73.390;2022-12-07T00:49:18;5.40;;;3.13;;
63664;SDS011;49820;33.966;73.390;2022-12-07T00:51:50;6.10;;;3.22;;
63664;SDS011;49820;33.966;73.390;2022-12-07T00:54:19;4.50;;;2.72;;
63664;SDS011;49820;33.966;73.390;2022-12-07T00:56:48;6.17;;;3.83;;
63664;SDS011;49820;33.966;73.390;2022-12-07T00:59:17;8.07;;;4.25;;
63664;SDS011;49820;33.966;73.390;2022-12-07T01:01:46;6.90;;;4.00;;
63664;SDS011;49820;33.966;73.390;2022-12-07T01:04:15;9.00;;;3.63;;
63664;SDS011;49820;33.966;73.390;2022-12-07T01:06:44;6.13;;;3.23;;
63664;SDS011;49820;33.966;73.390;2022-12-07T01:09:14;8.32;;;3.47;;
63664;SDS011;49820;33.966;73.390;2022-12-07T01:11:42;4.90;;;2.90;;
63664;SDS011;49820;33.966;73.390;2022-12-07T01:14:12;6.50;;;3.30;;
63664;SDS011;49820;33.966;73.390;2022-12-07T01:16:40;4.70;;;2.35;;
63664;SDS011;49820;33.966;73.390;2022-12-07T01:19:09;3.88;;;2.67;;
63664;SDS011;49820;33.966;73.390;2022-12-07T01:21:38;3.47;;;2.10;;
63664;SDS011;49820;33.966;73.390;2022-12-07T01:24:09;3.17;;;2.30;;
63664;SDS011;49820;33.966;73.390;2022-12-07T01:26:39;3.50;;;2.15;;
63664;SDS011;49820;33.966;73.390;2022-12-07T01:29:08;4.15;;;2.60;;
63664;SDS011;49820;33.966;73.390;2022-12-07T01:31:37;5.70;;;3.63;;
63664;SDS011;49820;33.966;73.390;2022-12-07T01:34:06;5.05;;;2.65;;
63664;SDS011;49820;33.966;73.390;2022-12-07T01:36:36;3.92;;;3.10;;
63664;SDS011;49820;33.966;73.390;2022-12-07T01:39:06;6.22;;;2.80;;
63664;SDS011;49820;33.966;73.390;2022-12-07T01:41:36;6.83;;;2.70;;
63664;SDS011;49820;33.966;73.390;2022-12-07T01:44:16;5.95;;;3.35;;
63664;SDS011;49820;33.966;73.390;2022-12-07T01:46:56;6.03;;;3.92;;
63664;SDS011;49820;33.966;73.390;2022-12-07T01:49:38;7.47;;;3.90;;
63664;SDS011;49820;33.966;73.390;2022-12-07T01:54:49;5.32;;;3.60;;
63664;SDS011;49820;33.966;73.390;2022-12-07T01:57:22;6.00;;;3.28;;
63664;SDS011;49820;33.966;73.390;2022-12-07T01:59:51;6.03;;;3.03;;
63664;SDS011;49820;33.966;73.390;2022-12-07T02:02:23;5.05;;;2.60;;
63664;SDS011;49820;33.966;73.390;2022-12-07T02:05:04;9.52;;;6.00;;
63664;SDS011;49820;33.966;73.390;2022-12-07T02:07:34;9.88;;;7.40;;
63664;SDS011;49820;33.966;73.390;2022-12-07T02:10:19;5.13;;;3.15;;
63664;SDS011;49820;33.966;73.390;2022-12-07T02:12:52;12.03;;;5.93;;
63664;SDS011;49820;33.966;73.390;2022-12-07T02:30:00;6.30;;;3.10;;
63664;SDS011;49820;33.966;73.390;2022-12-07T02:37:48;10.85;;;3.85;;
63664;SDS011;49820;33.966;73.390;2022-12-07T02:43:31;9.40;;;3.75;;
63664;SDS011;49820;33.966;73.390;2022-12-07T02:46:11;8.65;;;5.50;;
63664;SDS011;49820;33.966;73.390;2022-12-07T02:49:02;8.52;;;4.57;;
63664;SDS011;49820;33.966;73.390;2022-12-07T02:51:32;6.70;;;3.53;;
63664;SDS011;49820;33.966;73.390;2022-12-07T02:54:01;12.20;;;6.85;;
63664;SDS011;49820;33.966;73.390;2022-12-07T02:56:33;5.00;;;3.00;;
63664;SDS011;49820;33.966;73.390;2022-12-07T03:02:18;8.70;;;3.67;;
63664;SDS011;49820;33.966;73.390;2022-12-07T03:10:35;11.02;;;6.38;;
63664;SDS011;49820;33.966;73.390;2022-12-07T03:18:34;10.73;;;5.97;;
63664;SDS011;49820;33.966;73.390;2022-12-07T03:21:08;10.90;;;6.43;;
63664;SDS011;49820;33.966;73.390;2022-12-07T03:23:56;11.38;;;6.28;;
63664;SDS011;49820;33.966;73.390;2022-12-07T03:26:34;12.57;;;6.80;;
63664;SDS011;49820;33.966;73.390;2022-12-07T03:29:08;13.45;;;6.22;;
63664;SDS011;49820;33.966;73.390;2022-12-07T03:31:43;12.07;;;6.82;;
63664;SDS011;49820;33.966;73.390;2022-12-07T03:34:21;10.20;;;5.22;;
63664;SDS011;49820;33.966;73.390;2022-12-07T03:37:00;7.47;;;5.03;;
63664;SDS011;49820;33.966;73.390;2022-12-07T03:39:38;8.20;;;5.13;;
63664;SDS011;49820;33.966;73.390;2022-12-07T03:42:13;8.63;;;5.07;;
63664;SDS011;49820;33.966;73.390;2022-12-07T03:44:42;8.75;;;5.05;;
63664;SDS011;49820;33.966;73.390;2022-12-07T03:47:25;10.18;;;5.18;;
63664;SDS011;49820;33.966;73.390;2022-12-07T03:50:15;9.60;;;5.05;;
63664;SDS011;49820;33.966;73.390;2022-12-07T03:53:34;7.97;;;4.68;;
63664;SDS011;49820;33.966;73.390;2022-12-07T03:56:13;8.45;;;5.22;;
63664;SDS011;49820;33.966;73.390;2022-12-07T03:58:42;10.20;;;6.35;;
63664;SDS011;49820;33.966;73.390;2022-12-07T04:01:12;14.60;;;8.73;;
63664;SDS011;49820;33.966;73.390;2022-12-07T04:03:41;13.98;;;7.78;;
63664;SDS011;49820;33.966;73.390;2022-12-07T04:06:10;14.90;;;7.55;;
63664;SDS011;49820;33.966;73.390;2022-12-07T04:08:39;10.18;;;5.88;;
63664;SDS011;49820;33.966;73.390;2022-12-07T04:11:09;12.50;;;6.60;;
63664;SDS011;49820;33.966;73.390;2022-12-07T04:13:38;14.30;;;7.30;;
63664;SDS011;49820;33.966;73.390;2022-12-07T04:16:25;13.57;;;7.38;;
63664;SDS011;49820;33.966;73.390;2022-12-07T04:18:54;12.77;;;7.22;;
63664;SDS011;49820;33.966;73.390;2022-12-07T04:21:22;12.77;;;7.40;;
63664;SDS011;49820;33.966;73.390;2022-12-07T04:23:51;12.45;;;7.38;;
63664;SDS011;49820;33.966;73.390;2022-12-07T04:26:20;13.55;;;7.22;;
63664;SDS011;49820;33.966;73.390;2022-12-07T04:28:49;14.02;;;7.57;;
63664;SDS011;49820;33.966;73.390;2022-12-07T04:31:18;13.68;;;7.22;;
63664;SDS011;49820;33.966;73.390;2022-12-07T04:33:48;12.75;;;7.85;;
63664;SDS011;49820;33.966;73.390;2022-12-07T04:36:17;15.95;;;9.38;;
63664;SDS011;49820;33.966;73.390;2022-12-07T04:38:47;16.00;;;9.27;;
63664;SDS011;49820;33.966;73.390;2022-12-07T04:41:16;18.55;;;9.52;;
63664;SDS011;49820;33.966;73.390;2022-12-07T04:43:45;18.40;;;9.50;;
63664;SDS011;49820;33.966;73.390;2022-12-07T04:46:14;16.20;;;9.70;;
63664;SDS011;49820;33.966;73.390;2022-12-07T04:48:43;18.58;;;9.43;;
63664;SDS011;49820;33.966;73.390;2022-12-07T04:51:12;17.00;;;9.90;;
63664;SDS011;49820;33.966;73.390;2022-12-07T04:53:44;19.85;;;11.05;;
63664;SDS011;49820;33.966;73.390;2022-12-07T04:56:13;17.13;;;10.50;;
63664;SDS011;49820;33.966;73.390;2022-12-07T04:58:43;18.67;;;10.82;;
63664;SDS011;49820;33.966;73.390;2022-12-07T05:01:15;22.30;;;12.38;;
63664;SDS011;49820;33.966;73.390;2022-12-07T05:03:45;22.05;;;11.60;;
63664;SDS011;49820;33.966;73.390;2022-12-07T05:06:13;20.30;;;11.83;;
63664;SDS011;49820;33.966;73.390;2022-12-07T05:08:43;20.08;;;11.18;;
63664;SDS011;49820;33.966;73.390;2022-12-07T05:11:12;20.58;;;12.00;;
63664;SDS011;49820;33.966;73.390;2022-12-07T05:14:00;24.77;;;12.25;;
63664;SDS011;49820;33.966;73.390;2022-12-07T05:16:31;23.27;;;13.02;;
63664;SDS011;49820;33.966;73.390;2022-12-07T05:19:02;22.50;;;13.02;;
63664;SDS011;49820;33.966;73.390;2022-12-07T05:21:32;24.23;;;13.80;;
63664;SDS011;49820;33.966;73.390;2022-12-07T05:24:01;23.63;;;13.10;;
63664;SDS011;49820;33.966;73.390;2022-12-07T05:26:30;24.63;;;13.45;;
63664;SDS011;49820;33.966;73.390;2022-12-07T05:28:59;23.13;;;13.25;;
63664;SDS011;49820;33.966;73.390;2022-12-07T05:31:28;24.67;;;14.05;;
63664;SDS011;49820;33.966;73.390;2022-12-07T05:33:57;21.63;;;13.02;;
63664;SDS011;49820;33.966;73.390;2022-12-07T05:36:26;25.50;;;13.43;;
63664;SDS011;49820;33.966;73.390;2022-12-07T05:38:57;27.30;;;14.02;;
63664;SDS011;49820;33.966;73.390;2022-12-07T05:41:26;23.80;;;13.60;;
63664;SDS011;49820;33.966;73.390;2022-12-07T05:44:14;26.27;;;13.23;;
63664;SDS011;49820;33.966;73.390;2022-12-07T05:46:42;22.23;;;12.65;;
63664;SDS011;49820;33.966;73.390;2022-12-07T05:49:12;25.60;;;13.93;;
63664;SDS011;49820;33.966;73.390;2022-12-07T05:51:40;24.67;;;13.88;;
63664;SDS011;49820;33.966;73.390;2022-12-07T05:54:10;26.20;;;13.82;;
63664;SDS011;49820;33.966;73.390;2022-12-07T05:56:38;22.88;;;12.70;;
63664;SDS011;49820;33.966;73.390;2022-12-07T05:59:08;21.20;;;12.17;;
63664;SDS011;49820;33.966;73.390;2022-12-07T06:01:54;23.33;;;13.25;;
63664;SDS011;49820;33.966;73.390;2022-12-07T06:04:26;25.20;;;13.73;;
63664;SDS011;49820;33.966;73.390;2022-12-07T06:06:57;24.23;;;13.15;;
63664;SDS011;49820;33.966;73.390;2022-12-07T06:09:27;23.55;;;11.43;;
63664;SDS011;49820;33.966;73.390;2022-12-07T06:11:57;16.08;;;9.68;;
63664;SDS011;49820;33.966;73.390;2022-12-07T06:14:45;12.32;;;7.63;;
63664;SDS011;49820;33.966;73.390;2022-12-07T06:17:14;21.63;;;12.00;;
63664;SDS011;49820;33.966;73.390;2022-12-07T06:19:44;22.10;;;11.05;;
63664;SDS011;49820;33.966;73.390;2022-12-07T06:22:13;21.03;;;11.30;;
63664;SDS011;49820;33.966;73.390;2022-12-07T06:24:44;19.17;;;11.37;;
63664;SDS011;49820;33.966;73.390;2022-12-07T06:27:13;22.02;;;12.88;;
63664;SDS011;49820;33.966;73.390;2022-12-07T06:29:42;22.15;;;12.60;;
63664;SDS011;49820;33.966;73.390;2022-12-07T06:32:11;16.52;;;10.30;;
63664;SDS011;49820;33.966;73.390;2022-12-07T06:34:40;16.00;;;9.32;;
63664;SDS011;49820;33.966;73.390;2022-12-07T06:37:09;16.02;;;9.23;;
63664;SDS011;49820;33.966;73.390;2022-12-07T06:39:38;16.65;;;9.57;;
63664;SDS011;49820;33.966;73.390;2022-12-07T06:42:07;15.43;;;8.70;;
63664;SDS011;49820;33.966;73.390;2022-12-07T06:44:36;10.88;;;6.72;;
63664;SDS011;49820;33.966;73.390;2022-12-07T06:47:05;13.73;;;7.60;;
63664;SDS011;49820;33.966;73.390;2022-12-07T06:49:55;10.43;;;5.93;;
63664;SDS011;49820;33.966;73.390;2022-12-07T06:52:24;12.20;;;7.43;;
63664;SDS011;49820;33.966;73.390;2022-12-07T06:54:53;12.20;;;7.57;;
63664;SDS011;49820;33.966;73.390;2022-12-07T06:57:22;17.70;;;10.63;;
63664;SDS011;49820;33.966;73.390;2022-12-07T06:59:51;21.30;;;12.07;;
63664;SDS011;49820;33.966;73.390;2022-12-07T07:02:19;11.48;;;6.47;;
63664;SDS011;49820;33.966;73.390;2022-12-07T07:04:48;8.40;;;5.88;;
63664;SDS011;49820;33.966;73.390;2022-12-07T07:07:17;10.63;;;5.75;;
63664;SDS011;49820;33.966;73.390;2022-12-07T07:09:46;10.32;;;5.78;;
63664;SDS011;49820;33.966;73.390;2022-12-07T07:12:14;9.87;;;5.70;;
63664;SDS011;49820;33.966;73.390;2022-12-07T07:14:43;8.05;;;5.85;;
63664;SDS011;49820;33.966;73.390;2022-12-07T07:17:12;8.77;;;5.32;;
63664;SDS011;49820;33.966;73.390;2022-12-07T07:19:41;9.90;;;5.88;;
63664;SDS011;49820;33.966;73.390;2022-12-07T07:22:10;9.88;;;5.80;;
63664;SDS011;49820;33.966;73.390;2022-12-07T07:24:39;9.38;;;5.35;;
63664;SDS011;49820;33.966;73.390;2022-12-07T07:27:07;9.32;;;5.47;;
63664;SDS011;49820;33.966;73.390;2022-12-07T07:29:36;8.98;;;5.55;;
63664;SDS011;49820;33.966;73.390;2022-12-07T07:32:05;9.88;;;5.97;;
63664;SDS011;49820;33.966;73.390;2022-12-07T07:34:35;11.90;;;6.28;;
63664;SDS011;49820;33.966;73.390;2022-12-07T07:37:04;7.28;;;5.55;;
63664;SDS011;49820;33.966;73.390;2022-12-07T07:39:33;7.95;;;5.32;;
63664;SDS011;49820;33.966;73.390;2022-12-07T07:42:02;11.60;;;5.70;;
63664;SDS011;49820;33.966;73.390;2022-12-07T07:44:33;9.63;;;6.22;;
63664;SDS011;49820;33.966;73.390;2022-12-07T07:47:03;10.95;;;6.00;;
63664;SDS011;49820;33.966;73.390;2022-12-07T07:49:32;9.13;;;5.68;;
63664;SDS011;49820;33.966;73.390;2022-12-07T07:52:01;9.38;;;5.93;;
63664;SDS011;49820;33.966;73.390;2022-12-07T07:54:31;8.68;;;5.90;;
63664;SDS011;49820;33.966;73.390;2022-12-07T07:57:00;8.43;;;5.32;;
63664;SDS011;49820;33.966;73.390;2022-12-07T07:59:29;10.95;;;6.22;;
63664;SDS011;49820;33.966;73.390;2022-12-07T08:01:58;8.63;;;5.75;;
63664;SDS011;49820;33.966;73.390;2022-12-07T08:04:27;9.07;;;5.90;;
63664;SDS011;49820;33.966;73.390;2022-12-07T08:06:56;8.52;;;5.60;;
63664;SDS011;49820;33.966;73.390;2022-12-07T08:09:26;11.50;;;6.50;;
63664;SDS011;49820;33.966;73.390;2022-12-07T08:11:54;8.38;;;5.78;;
63664;SDS011;49820;33.966;73.390;2022-12-07T08:14:24;8.90;;;5.68;;
63664;SDS011;49820;33.966;73.390;2022-12-07T08:16:53;9.23;;;5.70;;
63664;SDS011;49820;33.966;73.390;2022-12-07T08:19:22;9.07;;;5.57;;
63664;SDS011;49820;33.966;73.390;2022-12-07T08:21:52;8.50;;;5.63;;
63664;SDS011;49820;33.966;73.390;2022-12-07T08:24:21;8.52;;;5.47;;
63664;SDS011;49820;33.966;73.390;2022-12-07T08:26:49;8.98;;;5.68;;
63664;SDS011;49820;33.966;73.390;2022-12-07T08:29:19;10.73;;;5.95;;
63664;SDS011;49820;33.966;73.390;2022-12-07T08:31:48;8.35;;;5.38;;
63664;SDS011;49820;33.966;73.390;2022-12-07T08:34:17;10.38;;;6.03;;
63664;SDS011;49820;33.966;73.390;2022-12-07T08:36:46;7.53;;;5.82;;
63664;SDS011;49820;33.966;73.390;2022-12-07T08:39:15;9.10;;;5.85;;
63664;SDS011;49820;33.966;73.390;2022-12-07T08:41:59;10.47;;;5.77;;
63664;SDS011;49820;33.966;73.390;2022-12-07T08:44:28;8.95;;;5.57;;
63664;SDS011;49820;33.966;73.390;2022-12-07T08:46:58;9.60;;;5.40;;
63664;SDS011;49820;33.966;73.390;2022-12-07T08:49:31;8.20;;;5.40;;
63664;SDS011;49820;33.966;73.390;2022-12-07T08:52:06;7.03;;;5.30;;
63664;SDS011;49820;33.966;73.390;2022-12-07T08:54:35;9.52;;;5.63;;
63664;SDS011;49820;33.966;73.390;2022-12-07T08:57:07;8.43;;;5.68;;
63664;SDS011;49820;33.966;73.390;2022-12-07T08:59:37;10.40;;;5.57;;
63664;SDS011;49820;33.966;73.390;2022-12-07T09:02:06;10.45;;;6.10;;
63664;SDS011;49820;33.966;73.390;2022-12-07T09:04:35;9.02;;;5.72;;
63664;SDS011;49820;33.966;73.390;2022-12-07T09:07:04;8.15;;;5.13;;
63664;SDS011;49820;33.966;73.390;2022-12-07T09:09:34;8.68;;;5.75;;
63664;SDS011;49820;33.966;73.390;2022-12-07T09:12:03;8.88;;;5.72;;
63664;SDS011;49820;33.966;73.390;2022-12-07T09:14:32;9.27;;;5.30;;
63664;SDS011;49820;33.966;73.390;2022-12-07T09:17:08;8.73;;;5.57;;
63664;SDS011;49820;33.966;73.390;2022-12-07T09:19:39;10.23;;;5.70;;
63664;SDS011;49820;33.966;73.390;2022-12-07T09:22:10;9.35;;;5.88;;
63664;SDS011;49820;33.966;73.390;2022-12-07T09:24:39;8.70;;;5.85;;
63664;SDS011;49820;33.966;73.390;2022-12-07T09:27:08;7.63;;;5.63;;
63664;SDS011;49820;33.966;73.390;2022-12-07T09:29:37;9.43;;;5.90;;
63664;SDS011;49820;33.966;73.390;2022-12-07T09:32:06;8.30;;;6.00;;
63664;SDS011;49820;33.966;73.390;2022-12-07T09:34:38;8.55;;;5.70;;
63664;SDS011;49820;33.966;73.390;2022-12-07T09:37:07;10.77;;;5.88;;
63664;SDS011;49820;33.966;73.390;2022-12-07T09:39:39;9.60;;;5.60;;
63664;SDS011;49820;33.966;73.390;2022-12-07T09:45:24;10.15;;;6.35;;
63664;SDS011;49820;33.966;73.390;2022-12-07T09:48:04;9.45;;;5.75;;
63664;SDS011;49820;33.966;73.390;2022-12-07T09:50:34;8.90;;;5.30;;
63664;SDS011;49820;33.966;73.390;2022-12-07T09:53:12;8.45;;;5.72;;
63664;SDS011;49820;33.966;73.390;2022-12-07T09:55:48;8.57;;;5.38;;
63664;SDS011;49820;33.966;73.390;2022-12-07T09:58:20;8.85;;;5.47;;
63664;SDS011;49820;33.966;73.390;2022-12-07T10:01:01;9.90;;;5.90;;
63664;SDS011;49820;33.966;73.390;2022-12-07T10:03:40;9.25;;;5.93;;
63664;SDS011;49820;33.966;73.390;2022-12-07T10:06:31;9.17;;;5.90;;
63664;SDS011;49820;33.966;73.390;2022-12-07T10:09:00;9.77;;;6.18;;
63664;SDS011;49820;33.966;73.390;2022-12-07T10:11:29;9.73;;;6.32;;
63664;SDS011;49820;33.966;73.390;2022-12-07T10:14:10;10.30;;;6.83;;
63664;SDS011;49820;33.966;73.390;2022-12-07T10:16:41;10.70;;;6.88;;
63664;SDS011;49820;33.966;73.390;2022-12-07T10:19:31;9.82;;;5.97;;
63664;SDS011;49820;33.966;73.390;2022-12-07T10:22:04;10.80;;;7.05;;
63664;SDS011;49820;33.966;73.390;2022-12-07T10:24:43;12.45;;;6.88;;
63664;SDS011;49820;33.966;73.390;2022-12-07T10:27:25;10.00;;;6.82;;
63664;SDS011;49820;33.966;73.390;2022-12-07T10:29:58;10.45;;;7.25;;
63664;SDS011;49820;33.966;73.390;2022-12-07T10:32:31;13.18;;;7.70;;
63664;SDS011;49820;33.966;73.390;2022-12-07T10:38:00;11.80;;;7.82;;
63664;SDS011;49820;33.966;73.390;2022-12-07T10:40:33;16.03;;;10.37;;
63664;SDS011;49820;33.966;73.390;2022-12-07T10:48:52;38.20;;;24.70;;
63664;SDS011;49820;33.966;73.390;2022-12-07T10:55:08;19.02;;;12.57;;
63664;SDS011;49820;33.966;73.390;2022-12-07T11:05:25;15.95;;;10.50;;
63664;SDS011;49820;33.966;73.390;2022-12-07T11:08:09;15.82;;;8.73;;
63664;SDS011;49820;33.966;73.390;2022-12-07T11:11:05;12.87;;;8.00;;
63664;SDS011;49820;33.966;73.390;2022-12-07T11:24:31;11.60;;;7.05;;
63664;SDS011;49820;33.966;73.390;2022-12-07T11:27:37;16.70;;;7.55;;
63664;SDS011;49820;33.966;73.390;2022-12-07T11:31:15;13.30;;;7.60;;
63664;SDS011;49820;33.966;73.390;2022-12-07T11:34:18;12.95;;;8.20;;
63664;SDS011;49820;33.966;73.390;2022-12-07T11:36:45;15.52;;;8.63;;
63664;SDS011;49820;33.966;73.390;2022-12-07T11:41:50;14.32;;;8.88;;
63664;SDS011;49820;33.966;73.390;2022-12-07T11:44:33;16.73;;;9.82;;
63664;SDS011;49820;33.966;73.390;2022-12-07T11:47:35;17.80;;;10.63;;
63664;SDS011;49820;33.966;73.390;2022-12-07T12:04:43;14.50;;;8.88;;
63664;SDS011;49820;33.966;73.390;2022-12-07T12:07:23;16.75;;;9.45;;
63664;SDS011;49820;33.966;73.390;2022-12-07T12:10:17;17.13;;;9.32;;
63664;SDS011;49820;33.966;73.390;2022-12-07T12:19:37;12.82;;;7.47;;
63664;SDS011;49820;33.966;73.390;2022-12-07T12:25:21;14.80;;;8.77;;
63664;SDS011;49820;33.966;73.390;2022-12-07T12:27:59;14.50;;;7.70;;
63664;SDS011;49820;33.966;73.390;2022-12-07T12:30:31;12.23;;;6.17;;
63664;SDS011;49820;33.966;73.390;2022-12-07T12:35:35;14.18;;;8.05;;
63664;SDS011;49820;33.966;73.390;2022-12-07T12:40:55;18.83;;;10.52;;
63664;SDS011;49820;33.966;73.390;2022-12-07T12:43:46;18.95;;;9.98;;
63664;SDS011;49820;33.966;73.390;2022-12-07T12:57:38;23.80;;;13.23;;
63664;SDS011;49820;33.966;73.390;2022-12-07T13:00:20;24.58;;;13.27;;
63664;SDS011;49820;33.966;73.390;2022-12-07T13:02:52;24.70;;;13.48;;
63664;SDS011;49820;33.966;73.390;2022-12-07T13:05:25;25.20;;;14.48;;
63664;SDS011;49820;33.966;73.390;2022-12-07T13:11:25;25.25;;;14.50;;
63664;SDS011;49820;33.966;73.390;2022-12-07T13:17:09;27.15;;;15.63;;
63664;SDS011;49820;33.966;73.390;2022-12-07T13:25:12;24.17;;;13.07;;
63664;SDS011;49820;33.966;73.390;2022-12-07T13:28:02;23.33;;;12.88;;
63664;SDS011;49820;33.966;73.390;2022-12-07T13:31:09;25.75;;;12.98;;
63664;SDS011;49820;33.966;73.390;2022-12-07T13:33:44;23.15;;;12.70;;
63664;SDS011;49820;33.966;73.390;2022-12-07T13:36:17;23.25;;;12.00;;
63664;SDS011;49820;33.966;73.390;2022-12-07T13:38:55;19.30;;;10.52;;
63664;SDS011;49820;33.966;73.390;2022-12-07T13:41:27;20.00;;;10.55;;
63664;SDS011;49820;33.966;73.390;2022-12-07T13:44:01;23.13;;;11.48;;
63664;SDS011;49820;33.966;73.390;2022-12-07T13:49:50;23.50;;;12.00;;
63664;SDS011;49820;33.966;73.390;2022-12-07T13:52:26;23.60;;;12.18;;
63664;SDS011;49820;33.966;73.390;2022-12-07T13:57:28;26.43;;;13.00;;
63664;SDS011;49820;33.966;73.390;2022-12-07T13:59:58;24.35;;;12.63;;
63664;SDS011;49820;33.966;73.390;2022-12-07T14:02:31;26.65;;;12.88;;
63664;SDS011;49820;33.966;73.390;2022-12-07T14:05:08;24.20;;;11.93;;
63664;SDS011;49820;33.966;73.390;2022-12-07T14:07:58;23.25;;;12.18;;
63664;SDS011;49820;33.966;73.390;2022-12-07T14:10:40;22.70;;;10.97;;
63664;SDS011;49820;33.966;73.390;2022-12-07T14:15:56;18.27;;;9.77;;
63664;SDS011;49820;33.966;73.390;2022-12-07T14:21:15;17.48;;;8.80;;
63664;SDS011;49820;33.966;73.390;2022-12-07T14:23:46;16.58;;;8.77;;
63664;SDS011;49820;33.966;73.390;2022-12-07T14:26:50;16.92;;;9.05;;
63664;SDS011;49820;33.966;73.390;2022-12-07T14:31:56;15.30;;;8.18;;
63664;SDS011;49820;33.966;73.390;2022-12-07T14:34:27;16.52;;;8.02;;
63664;SDS011;49820;33.966;73.390;2022-12-07T14:36:58;15.07;;;8.07;;
63664;SDS011;49820;33.966;73.390;2022-12-07T14:39:27;13.80;;;7.32;;
63664;SDS011;49820;33.966;73.390;2022-12-07T14:41:56;14.35;;;7.45;;
63664;SDS011;49820;33.966;73.390;2022-12-07T14:44:24;13.05;;;7.18;;
63664;SDS011;49820;33.966;73.390;2022-12-07T14:47:01;12.10;;;6.38;;
63664;SDS011;49820;33.966;73.390;2022-12-07T14:49:51;9.70;;;5.97;;
63664;SDS011;49820;33.966;73.390;2022-12-07T14:52:25;11.48;;;6.55;;
63664;SDS011;49820;33.966;73.390;2022-12-07T14:55:25;14.75;;;8.93;;
63664;SDS011;49820;33.966;73.390;2022-12-07T14:57:56;12.43;;;8.18;;
63664;SDS011;49820;33.966;73.390;2022-12-07T15:00:27;16.38;;;8.50;;
63664;SDS011;49820;33.966;73.390;2022-12-07T15:02:57;14.80;;;9.02;;
63664;SDS011;49820;33.966;73.390;2022-12-07T15:05:25;18.42;;;10.48;;
63664;SDS011;49820;33.966;73.390;2022-12-07T15:07:54;19.25;;;11.43;;
63664;SDS011;49820;33.966;73.390;2022-12-07T15:10:24;15.27;;;9.90;;
63664;SDS011;49820;33.966;73.390;2022-12-07T15:13:01;16.13;;;9.10;;
63664;SDS011;49820;33.966;73.390;2022-12-07T15:15:49;15.27;;;8.63;;
63664;SDS011;49820;33.966;73.390;2022-12-07T15:18:20;15.10;;;8.50;;
63664;SDS011;49820;33.966;73.390;2022-12-07T15:20:51;18.30;;;10.90;;
63664;SDS011;49820;33.966;73.390;2022-12-07T15:23:20;14.70;;;9.07;;
63664;SDS011;49820;33.966;73.390;2022-12-07T15:25:49;13.07;;;8.10;;
63664;SDS011;49820;33.966;73.390;2022-12-07T15:28:19;12.75;;;8.27;;
63664;SDS011;49820;33.966;73.390;2022-12-07T15:30:47;14.93;;;8.32;;
63664;SDS011;49820;33.966;73.390;2022-12-07T15:33:16;17.63;;;9.50;;
63664;SDS011;49820;33.966;73.390;2022-12-07T15:35:45;10.03;;;6.43;;
63664;SDS011;49820;33.966;73.390;2022-12-07T15:38:14;10.30;;;5.93;;
63664;SDS011;49820;33.966;73.390;2022-12-07T15:40:59;12.07;;;6.97;;
63664;SDS011;49820;33.966;73.390;2022-12-07T15:43:28;11.55;;;7.30;;
63664;SDS011;49820;33.966;73.390;2022-12-07T15:46:15;13.33;;;6.00;;
63664;SDS011;49820;33.966;73.390;2022-12-07T15:48:45;60.55;;;33.92;;
63664;SDS011;49820;33.966;73.390;2022-12-07T15:51:14;46.55;;;24.10;;
63664;SDS011;49820;33.966;73.390;2022-12-07T15:53:50;20.17;;;11.80;;
63664;SDS011;49820;33.966;73.390;2022-12-07T15:56:19;15.98;;;9.48;;
63664;SDS011;49820;33.966;73.390;2022-12-07T15:58:48;21.25;;;11.75;;
63664;SDS011;49820;33.966;73.390;2022-12-07T16:01:19;21.42;;;13.15;;
63664;SDS011;49820;33.966;73.390;2022-12-07T16:03:48;22.73;;;13.23;;
63664;SDS011;49820;33.966;73.390;2022-12-07T16:06:17;23.10;;;11.77;;
63664;SDS011;49820;33.966;73.390;2022-12-07T16:08:47;19.42;;;11.32;;
63664;SDS011;49820;33.966;73.390;2022-12-07T16:11:16;20.08;;;11.57;;
63664;SDS011;49820;33.966;73.390;2022-12-07T16:13:46;21.05;;;11.75;;
63664;SDS011;49820;33.966;73.390;2022-12-07T16:16:15;21.27;;;11.55;;
63664;SDS011;49820;33.966;73.390;2022-12-07T16:18:46;18.42;;;10.75;;
63664;SDS011;49820;33.966;73.390;2022-12-07T16:21:15;16.92;;;9.75;;
63664;SDS011;49820;33.966;73.390;2022-12-07T16:23:51;15.82;;;8.88;;
63664;SDS011;49820;33.966;73.390;2022-12-07T16:26:21;18.35;;;9.82;;
63664;SDS011;49820;33.966;73.390;2022-12-07T16:28:51;13.70;;;7.73;;
63664;SDS011;49820;33.966;73.390;2022-12-07T16:31:22;12.63;;;7.38;;
63664;SDS011;49820;33.966;73.390;2022-12-07T16:33:53;15.38;;;8.75;;
63664;SDS011;49820;33.966;73.390;2022-12-07T16:36:24;14.90;;;8.15;;
63664;SDS011;49820;33.966;73.390;2022-12-07T16:39:15;12.75;;;7.75;;
63664;SDS011;49820;33.966;73.390;2022-12-07T16:41:46;12.45;;;7.70;;
63664;SDS011;49820;33.966;73.390;2022-12-07T16:44:14;14.30;;;6.70;;
63664;SDS011;49820;33.966;73.390;2022-12-07T16:46:43;14.68;;;7.25;;
63664;SDS011;49820;33.966;73.390;2022-12-07T16:49:16;15.57;;;8.88;;
63664;SDS011;49820;33.966;73.390;2022-12-07T16:51:45;13.70;;;7.63;;
63664;SDS011;49820;33.966;73.390;2022-12-07T16:54:37;13.73;;;8.13;;
63664;SDS011;49820;33.966;73.390;2022-12-07T16:57:05;13.57;;;7.10;;
63664;SDS011;49820;33.966;73.390;2022-12-07T16:59:35;11.68;;;6.72;;
63664;SDS011;49820;33.966;73.390;2022-12-07T17:02:04;12.10;;;6.63;;
63664;SDS011;49820;33.966;73.390;2022-12-07T17:04:34;12.80;;;6.10;;
63664;SDS011;49820;33.966;73.390;2022-12-07T17:07:05;12.48;;;7.00;;
63664;SDS011;49820;33.966;73.390;2022-12-07T17:09:34;12.48;;;6.78;;
63664;SDS011;49820;33.966;73.390;2022-12-07T17:12:04;13.20;;;7.15;;
63664;SDS011;49820;33.966;73.390;2022-12-07T17:14:34;10.38;;;6.15;;
63664;SDS011;49820;33.966;73.390;2022-12-07T17:17:22;10.60;;;6.15;;
63664;SDS011;49820;33.966;73.390;2022-12-07T17:19:51;11.23;;;5.18;;
63664;SDS011;49820;33.966;73.390;2022-12-07T17:22:20;10.07;;;5.20;;